Time;durP1;ratioP1;P1;durP2;ratioP2;P2;SDS_P1;SDS_P2;PMS_P1;PMS_P2;Temp;Humidity;BMP_temperature;BMP_pressure;BME280_temperature;BME280_humidity;BME280_pressure;Samples;Min_cycle;Max_cycle;Signal;HPM_P1;HPM_P2
2023/12/23 00:00:28;;;;;;;28.85;26.13;;;;;;;;;;4955842;28;20253;-44
2023/12/23 00:02:54;;;;;;;39.95;35.63;;;;;;;;;;4955658;28;20263;-44
2023/12/23 00:05:20;;;;;;;30.23;27.33;;;;;;;;;;4955763;28;20593;-43
2023/12/23 00:07:46;;;;;;;22.30;20.00;;;;;;;;;;4955842;28;20410;-43
2023/12/23 00:10:12;;;;;;;29.87;27.30;;;;;;;;;;4955846;28;20502;-43
2023/12/23 00:12:37;;;;;;;27.53;24.90;;;;;;;;;;4955545;28;20435;-43
2023/12/23 00:15:04;;;;;;;30.40;27.53;;;;;;;;;;4954808;28;20494;-43
2023/12/23 00:17:30;;;;;;;31.23;28.58;;;;;;;;;;4955635;28;20415;-43
2023/12/23 00:19:56;;;;;;;29.77;26.27;;;;;;;;;;4956032;28;20691;-43
2023/12/23 00:22:22;;;;;;;21.63;19.67;;;;;;;;;;4955315;28;20447;-43
2023/12/23 00:24:48;;;;;;;22.17;20.40;;;;;;;;;;4951573;29;20168;-43
2023/12/23 00:27:14;;;;;;;18.55;16.90;;;;;;;;;;4955420;28;20252;-43
2023/12/23 00:29:40;;;;;;;34.97;31.87;;;;;;;;;;4955522;28;20650;-44
2023/12/23 00:32:06;;;;;;;20.23;18.20;;;;;;;;;;4956179;28;20456;-43
2023/12/23 00:34:32;;;;;;;31.58;29.20;;;;;;;;;;4957948;28;20178;-43
2023/12/23 00:36:58;;;;;;;31.53;29.03;;;;;;;;;;4955289;28;20610;-43
2023/12/23 00:39:24;;;;;;;21.55;19.75;;;;;;;;;;4955385;28;20442;-43
2023/12/23 00:41:50;;;;;;;28.00;25.73;;;;;;;;;;4954942;28;20200;-43
2023/12/23 00:44:16;;;;;;;21.90;19.90;;;;;;;;;;4962569;28;20424;-42
2023/12/23 00:46:42;;;;;;;26.83;24.50;;;;;;;;;;4955150;28;20987;-43
2023/12/23 00:49:09;;;;;;;32.23;29.53;;;;;;;;;;4955027;28;20420;-43
2023/12/23 00:51:35;;;;;;;31.35;28.90;;;;;;;;;;4954737;28;20432;-44
2023/12/23 00:54:01;;;;;;;32.53;30.05;;;;;;;;;;4954941;28;20207;-44
2023/12/23 00:56:26;;;;;;;30.97;28.43;;;;;;;;;;4955991;28;20180;-44
2023/12/23 00:58:52;;;;;;;18.57;16.83;;;;;;;;;;4955032;28;20415;-44
2023/12/23 01:01:18;;;;;;;24.80;22.80;;;;;;;;;;4970552;28;20517;-44
2023/12/23 01:03:44;;;;;;;27.50;25.17;;;;;;;;;;4961902;28;20431;-44
2023/12/23 01:06:10;;;;;;;25.60;23.40;;;;;;;;;;4962762;28;20464;-43
2023/12/23 01:08:36;;;;;;;26.07;24.13;;;;;;;;;;4970190;28;20498;-44
2023/12/23 01:11:02;;;;;;;22.13;20.03;;;;;;;;;;4954664;28;20434;-43
2023/12/23 01:13:28;;;;;;;24.47;21.63;;;;;;;;;;4973989;28;20419;-43
2023/12/23 01:15:54;;;;;;;29.15;26.30;;;;;;;;;;4958479;28;20925;-44
2023/12/23 01:18:20;;;;;;;26.92;24.33;;;;;;;;;;4954048;28;20223;-44
2023/12/23 01:20:46;;;;;;;31.23;28.47;;;;;;;;;;4946999;28;20273;-44
2023/12/23 01:23:12;;;;;;;29.03;26.23;;;;;;;;;;4938637;29;20419;-44
2023/12/23 01:25:38;;;;;;;20.07;18.17;;;;;;;;;;4954511;28;20454;-43
2023/12/23 01:28:04;;;;;;;25.80;23.43;;;;;;;;;;4935918;28;20420;-43
2023/12/23 01:30:37;;;;;;;28.25;25.73;;;;;;;;;;4949715;29;20471;-43
2023/12/23 01:33:03;;;;;;;27.65;25.20;;;;;;;;;;4942564;28;20228;-43
2023/12/23 01:35:29;;;;;;;27.02;24.65;;;;;;;;;;4942724;29;20176;-43
2023/12/23 01:37:55;;;;;;;27.03;24.60;;;;;;;;;;4950631;28;20539;-43
2023/12/23 01:40:20;;;;;;;26.57;24.23;;;;;;;;;;4935172;29;20839;-43
2023/12/23 01:42:46;;;;;;;34.20;30.50;;;;;;;;;;4954054;28;20443;-43
2023/12/23 01:45:12;;;;;;;26.38;23.73;;;;;;;;;;4939006;28;20455;-44
2023/12/23 01:47:41;;;;;;;29.33;26.83;;;;;;;;;;4945966;29;20263;-44
2023/12/23 01:50:07;;;;;;;30.30;27.42;;;;;;;;;;4947042;28;20438;-44
2023/12/23 01:52:34;;;;;;;23.20;21.33;;;;;;;;;;4938104;29;20196;-44
2023/12/23 01:55:00;;;;;;;27.75;25.25;;;;;;;;;;4954095;28;20251;-44
2023/12/23 01:57:26;;;;;;;28.00;25.55;;;;;;;;;;4951727;28;20212;-44
2023/12/23 01:59:52;;;;;;;28.40;25.90;;;;;;;;;;4953826;28;20171;-44
2023/12/23 02:02:18;;;;;;;26.92;24.70;;;;;;;;;;4952964;28;20429;-43
2023/12/23 02:04:44;;;;;;;21.30;19.27;;;;;;;;;;4953049;28;20190;-43
2023/12/23 02:07:10;;;;;;;30.90;28.60;;;;;;;;;;4959416;28;20471;-43
2023/12/23 02:09:36;;;;;;;29.17;26.83;;;;;;;;;;4953924;28;20700;-43
2023/12/23 02:12:16;;;;;;;22.42;20.33;;;;;;;;;;4953247;28;20436;-43
2023/12/23 02:14:46;;;;;;;21.63;19.88;;;;;;;;;;4953611;28;20212;-43
2023/12/23 02:17:12;;;;;;;33.25;30.30;;;;;;;;;;4957763;28;20215;-43
2023/12/23 02:19:38;;;;;;;28.92;26.17;;;;;;;;;;4953675;28;20212;-43
2023/12/23 02:22:04;;;;;;;33.50;29.90;;;;;;;;;;4953300;28;20614;-44
2023/12/23 02:24:30;;;;;;;30.02;27.02;;;;;;;;;;4954125;28;20412;-44
2023/12/23 02:27:07;;;;;;;27.50;25.20;;;;;;;;;;4954228;28;20209;-43
2023/12/23 02:29:34;;;;;;;29.42;26.98;;;;;;;;;;4955900;28;20420;-43
2023/12/23 02:32:02;;;;;;;28.70;26.50;;;;;;;;;;4957136;28;20754;-44
2023/12/23 02:34:28;;;;;;;21.98;20.33;;;;;;;;;;4953558;28;20184;-43
2023/12/23 02:36:54;;;;;;;31.10;28.60;;;;;;;;;;4953525;28;20188;-43
2023/12/23 02:39:20;;;;;;;29.07;26.90;;;;;;;;;;4957028;28;20180;-43
2023/12/23 02:41:46;;;;;;;22.20;20.30;;;;;;;;;;4957054;28;20429;-43
2023/12/23 02:44:12;;;;;;;29.10;26.60;;;;;;;;;;4957344;28;20420;-44
2023/12/23 02:46:38;;;;;;;28.60;26.47;;;;;;;;;;4957314;28;20461;-43
2023/12/23 02:49:04;;;;;;;18.63;16.90;;;;;;;;;;4955959;28;20424;-44
2023/12/23 02:51:30;;;;;;;19.33;17.67;;;;;;;;;;4956940;28;20929;-43
2023/12/23 02:53:55;;;;;;;18.53;17.10;;;;;;;;;;4957097;28;20893;-43
2023/12/23 02:56:21;;;;;;;28.57;26.23;;;;;;;;;;4957070;28;20440;-43
2023/12/23 02:58:47;;;;;;;23.23;21.33;;;;;;;;;;4957062;28;20495;-43
2023/12/23 03:01:13;;;;;;;28.10;25.80;;;;;;;;;;4957013;28;20515;-43
2023/12/23 03:03:39;;;;;;;35.90;32.90;;;;;;;;;;4951715;29;20413;-43
2023/12/23 03:06:05;;;;;;;30.50;27.90;;;;;;;;;;4957078;28;20992;-44
2023/12/23 03:08:31;;;;;;;23.65;21.77;;;;;;;;;;4957549;28;20467;-43
2023/12/23 03:10:57;;;;;;;38.37;34.63;;;;;;;;;;4956422;28;20180;-44
2023/12/23 03:13:23;;;;;;;30.00;27.27;;;;;;;;;;4956735;28;20402;-44
2023/12/23 03:15:49;;;;;;;15.97;14.47;;;;;;;;;;4956782;28;20419;-44
2023/12/23 03:18:15;;;;;;;32.47;29.07;;;;;;;;;;4956733;28;20413;-44
2023/12/23 03:20:41;;;;;;;21.20;19.37;;;;;;;;;;4956634;28;20408;-44
2023/12/23 03:23:07;;;;;;;28.80;26.10;;;;;;;;;;4957213;28;20420;-44
2023/12/23 03:25:33;;;;;;;31.10;28.37;;;;;;;;;;4956493;28;20470;-43
2023/12/23 03:27:59;;;;;;;26.07;23.87;;;;;;;;;;4956566;28;20410;-44
2023/12/23 03:30:25;;;;;;;35.45;32.45;;;;;;;;;;4956345;28;20419;-44
2023/12/23 03:32:51;;;;;;;25.43;23.13;;;;;;;;;;4956449;28;20274;-43
2023/12/23 03:35:16;;;;;;;35.60;32.57;;;;;;;;;;4956913;28;20407;-43
2023/12/23 03:37:44;;;;;;;25.93;23.77;;;;;;;;;;4956922;28;20408;-43
2023/12/23 03:40:10;;;;;;;19.75;18.05;;;;;;;;;;4957522;28;20423;-43
2023/12/23 03:42:38;;;;;;;30.85;28.17;;;;;;;;;;4956017;28;20252;-44
2023/12/23 03:45:05;;;;;;;27.70;25.42;;;;;;;;;;4956257;28;20180;-43
2023/12/23 03:47:31;;;;;;;30.02;27.42;;;;;;;;;;4956206;28;20267;-44
2023/12/23 03:49:57;;;;;;;36.30;33.27;;;;;;;;;;4954792;28;20182;-44
2023/12/23 03:52:22;;;;;;;28.57;26.27;;;;;;;;;;4958336;28;20463;-43
2023/12/23 03:54:48;;;;;;;24.97;22.77;;;;;;;;;;4958912;28;20939;-43
2023/12/23 03:57:14;;;;;;;29.20;26.60;;;;;;;;;;4956623;28;20417;-43
2023/12/23 03:59:40;;;;;;;18.67;17.02;;;;;;;;;;4950997;29;20488;-43
2023/12/23 04:02:06;;;;;;;27.03;24.80;;;;;;;;;;4955622;28;20288;-43
2023/12/23 04:04:33;;;;;;;40.53;36.33;;;;;;;;;;4955820;28;20864;-43
2023/12/23 04:06:59;;;;;;;41.75;37.45;;;;;;;;;;4955753;28;20200;-43
2023/12/23 04:09:25;;;;;;;29.00;26.40;;;;;;;;;;4956109;28;20199;-43
2023/12/23 04:11:52;;;;;;;28.30;26.00;;;;;;;;;;4955578;28;20591;-43
2023/12/23 04:14:19;;;;;;;31.98;29.60;;;;;;;;;;4955764;28;20533;-43
2023/12/23 04:16:45;;;;;;;21.80;19.95;;;;;;;;;;4955689;28;20227;-43
2023/12/23 04:19:11;;;;;;;26.50;24.45;;;;;;;;;;4955661;28;20212;-43
2023/12/23 04:21:37;;;;;;;32.47;29.93;;;;;;;;;;4955782;28;20243;-43
2023/12/23 04:24:03;;;;;;;33.83;31.13;;;;;;;;;;4957122;28;20413;-43
2023/12/23 04:26:30;;;;;;;36.47;33.38;;;;;;;;;;4974960;28;20467;-43
2023/12/23 04:28:56;;;;;;;17.05;15.63;;;;;;;;;;4956605;28;20165;-44
2023/12/23 04:31:22;;;;;;;37.90;34.50;;;;;;;;;;4969543;28;20206;-44
2023/12/23 04:33:48;;;;;;;30.08;27.08;;;;;;;;;;4964388;28;20418;-43
2023/12/23 04:36:14;;;;;;;40.10;36.00;;;;;;;;;;4961632;28;20182;-43
2023/12/23 04:38:40;;;;;;;36.67;33.35;;;;;;;;;;4972399;28;20420;-44
2023/12/23 04:41:07;;;;;;;30.87;27.77;;;;;;;;;;4955421;28;20204;-43
2023/12/23 04:43:33;;;;;;;49.95;37.63;;;;;;;;;;4973079;28;20935;-44
2023/12/23 04:45:59;;;;;;;33.43;28.60;;;;;;;;;;4960625;28;20201;-43
2023/12/23 04:48:25;;;;;;;59.13;35.07;;;;;;;;;;4965105;28;20412;-44
2023/12/23 04:50:51;;;;;;;49.78;32.22;;;;;;;;;;4968205;28;20412;-44
2023/12/23 04:53:17;;;;;;;70.77;35.53;;;;;;;;;;4957544;28;20254;-44
2023/12/23 04:55:44;;;;;;;73.63;35.85;;;;;;;;;;4974582;28;20419;-44
2023/12/23 04:58:10;;;;;;;74.97;36.95;;;;;;;;;;4956849;28;20181;-43
2023/12/23 05:00:36;;;;;;;27.30;24.87;;;;;;;;;;4954869;28;20203;-44
2023/12/23 05:03:02;;;;;;;80.28;35.70;;;;;;;;;;4964273;28;20432;-44
2023/12/23 05:05:28;;;;;;;50.30;28.03;;;;;;;;;;4968394;28;20209;-43
2023/12/23 05:07:54;;;;;;;74.63;33.97;;;;;;;;;;4956375;28;20476;-43
2023/12/23 05:10:20;;;;;;;80.60;33.53;;;;;;;;;;4974088;28;20404;-44
2023/12/23 05:12:46;;;;;;;61.30;31.33;;;;;;;;;;4956926;28;20445;-43
2023/12/23 05:15:12;;;;;;;85.43;36.10;;;;;;;;;;4967628;28;20181;-44
2023/12/23 05:17:38;;;;;;;69.57;33.53;;;;;;;;;;4965007;28;20413;-43
2023/12/23 05:20:05;;;;;;;86.70;37.72;;;;;;;;;;4959373;28;20549;-44
2023/12/23 05:22:31;;;;;;;67.95;34.75;;;;;;;;;;4972499;28;20212;-44
2023/12/23 05:24:57;;;;;;;69.80;37.27;;;;;;;;;;4954683;28;20645;-43
2023/12/23 05:27:23;;;;;;;77.83;34.10;;;;;;;;;;4954007;28;20488;-43
2023/12/23 05:29:49;;;;;;;76.47;34.33;;;;;;;;;;4940851;28;20809;-44
2023/12/23 05:32:15;;;;;;;41.33;32.53;;;;;;;;;;4943354;29;20437;-44
2023/12/23 05:34:41;;;;;;;36.05;30.67;;;;;;;;;;4949777;28;21053;-44
2023/12/23 05:37:07;;;;;;;74.95;40.70;;;;;;;;;;4935609;29;20254;-43
2023/12/23 05:39:33;;;;;;;76.50;36.30;;;;;;;;;;4954362;28;20186;-44
2023/12/23 05:41:59;;;;;;;70.80;33.57;;;;;;;;;;4938253;28;20205;-44
2023/12/23 05:44:25;;;;;;;72.70;35.50;;;;;;;;;;4946950;29;20505;-44
2023/12/23 05:46:51;;;;;;;61.63;32.58;;;;;;;;;;4946150;28;20558;-43
2023/12/23 05:49:17;;;;;;;60.57;33.97;;;;;;;;;;4939094;29;20177;-44
2023/12/23 05:51:43;;;;;;;83.20;41.83;;;;;;;;;;4953671;28;20509;-44
2023/12/23 05:54:09;;;;;;;77.82;36.08;;;;;;;;;;4954100;28;20961;-44
2023/12/23 05:56:35;;;;;;;90.50;35.83;;;;;;;;;;4953486;28;20185;-44
2023/12/23 05:59:01;;;;;;;99.35;37.30;;;;;;;;;;4942810;28;21134;-44
2023/12/23 06:01:27;;;;;;;95.23;37.47;;;;;;;;;;4941989;28;20280;-44
2023/12/23 06:03:53;;;;;;;73.53;36.10;;;;;;;;;;4950191;28;20426;-44
2023/12/23 06:06:19;;;;;;;94.73;37.63;;;;;;;;;;4935030;29;20471;-43
2023/12/23 06:08:45;;;;;;;103.33;37.97;;;;;;;;;;4935118;29;20448;-44
2023/12/23 06:11:11;;;;;;;69.87;38.47;;;;;;;;;;4949188;28;20440;-44
2023/12/23 06:13:37;;;;;;;65.88;32.70;;;;;;;;;;4942182;28;20779;-44
2023/12/23 06:16:06;;;;;;;52.17;32.37;;;;;;;;;;4941465;29;20189;-43
2023/12/23 06:18:32;;;;;;;73.32;35.35;;;;;;;;;;4950475;28;20425;-43
2023/12/23 06:20:58;;;;;;;79.03;35.10;;;;;;;;;;4934729;29;20247;-44
2023/12/23 06:23:24;;;;;;;110.97;44.60;;;;;;;;;;4953097;29;20268;-44
2023/12/23 06:25:50;;;;;;;54.92;32.55;;;;;;;;;;4938833;28;20277;-43
2023/12/23 06:28:16;;;;;;;81.03;33.87;;;;;;;;;;4945197;29;20185;-44
2023/12/23 06:30:42;;;;;;;55.57;32.57;;;;;;;;;;4946562;28;20409;-44
2023/12/23 06:33:08;;;;;;;57.43;33.03;;;;;;;;;;4937128;29;20844;-44
2023/12/23 06:35:34;;;;;;;81.05;36.30;;;;;;;;;;4951315;28;20417;-43
2023/12/23 06:38:00;;;;;;;66.33;35.47;;;;;;;;;;4953427;28;20680;-44
2023/12/23 06:40:28;;;;;;;92.47;38.83;;;;;;;;;;4953279;28;20460;-44
2023/12/23 06:42:54;;;;;;;101.00;39.00;;;;;;;;;;4953223;28;20832;-43
2023/12/23 06:45:20;;;;;;;95.10;38.53;;;;;;;;;;4954338;28;20177;-43
2023/12/23 06:47:46;;;;;;;94.65;38.80;;;;;;;;;;4953086;28;20774;-44
2023/12/23 06:50:12;;;;;;;60.97;34.97;;;;;;;;;;4953535;28;20216;-44
2023/12/23 06:52:38;;;;;;;59.80;34.23;;;;;;;;;;4952939;28;20432;-43
2023/12/23 06:55:04;;;;;;;81.78;35.88;;;;;;;;;;4953283;28;20419;-43
2023/12/23 06:57:30;;;;;;;57.35;26.70;;;;;;;;;;4953663;28;20269;-44
2023/12/23 06:59:58;;;;;;;83.53;35.23;;;;;;;;;;4953725;28;20536;-43
2023/12/23 07:02:25;;;;;;;82.85;35.92;;;;;;;;;;4953351;28;20445;-44
2023/12/23 07:04:51;;;;;;;85.68;37.35;;;;;;;;;;4953271;28;20189;-44
2023/12/23 07:07:17;;;;;;;86.10;36.73;;;;;;;;;;4953092;28;20204;-43
2023/12/23 07:09:43;;;;;;;81.80;38.35;;;;;;;;;;4952512;28;21016;-43
2023/12/23 07:12:09;;;;;;;92.95;39.33;;;;;;;;;;4953075;28;20189;-43
2023/12/23 07:14:36;;;;;;;76.13;37.70;;;;;;;;;;4958320;28;20232;-43
2023/12/23 07:17:02;;;;;;;85.28;37.05;;;;;;;;;;4952893;28;21020;-43
2023/12/23 07:19:28;;;;;;;84.10;37.17;;;;;;;;;;4953022;28;20398;-43
2023/12/23 07:21:54;;;;;;;88.60;38.17;;;;;;;;;;4952416;28;20449;-43
2023/12/23 07:24:20;;;;;;;86.45;35.90;;;;;;;;;;4953930;28;20770;-43
2023/12/23 07:26:46;;;;;;;88.65;37.63;;;;;;;;;;4955270;28;20205;-43
2023/12/23 07:29:12;;;;;;;103.87;44.20;;;;;;;;;;4956324;28;20177;-43
2023/12/23 07:31:38;;;;;;;74.18;36.05;;;;;;;;;;4956511;28;20436;-43
2023/12/23 07:34:04;;;;;;;69.53;35.00;;;;;;;;;;4956445;28;20178;-43
2023/12/23 07:36:30;;;;;;;63.05;33.95;;;;;;;;;;4957226;28;20420;-44
2023/12/23 07:38:56;;;;;;;86.30;42.45;;;;;;;;;;4956710;28;20659;-43
2023/12/23 07:41:22;;;;;;;85.43;37.38;;;;;;;;;;4956141;28;20200;-43
2023/12/23 07:43:49;;;;;;;91.13;36.93;;;;;;;;;;4959894;28;20233;-43
2023/12/23 07:46:15;;;;;;;99.85;37.70;;;;;;;;;;4975521;28;20975;-43
2023/12/23 07:48:41;;;;;;;92.83;37.20;;;;;;;;;;4975211;28;20225;-43
2023/12/23 07:51:08;;;;;;;98.47;37.20;;;;;;;;;;4944847;28;20858;-44
2023/12/23 07:53:34;;;;;;;109.35;39.28;;;;;;;;;;4948244;29;20417;-43
2023/12/23 07:56:00;;;;;;;108.63;40.20;;;;;;;;;;4948843;28;20195;-44
2023/12/23 07:58:26;;;;;;;115.47;40.95;;;;;;;;;;4940189;29;20419;-44
2023/12/23 08:00:52;;;;;;;98.15;37.80;;;;;;;;;;4955935;28;20170;-43
2023/12/23 08:03:18;;;;;;;116.93;40.75;;;;;;;;;;4937410;28;20268;-44
2023/12/23 08:05:44;;;;;;;105.10;38.17;;;;;;;;;;4952076;29;20637;-44
2023/12/23 08:08:10;;;;;;;98.38;38.42;;;;;;;;;;4955976;28;20416;-43
2023/12/23 08:10:39;;;;;;;106.38;41.75;;;;;;;;;;4955741;28;20230;-43
2023/12/23 08:13:06;;;;;;;98.65;38.78;;;;;;;;;;4961809;28;20198;-44
2023/12/23 08:15:32;;;;;;;105.35;39.22;;;;;;;;;;4956877;28;20252;-43
2023/12/23 08:17:58;;;;;;;109.53;39.67;;;;;;;;;;4957128;28;20173;-43
2023/12/23 08:20:24;;;;;;;110.33;42.53;;;;;;;;;;4955602;28;20249;-43
2023/12/23 08:22:50;;;;;;;113.68;42.70;;;;;;;;;;4955551;28;20488;-43
2023/12/23 08:25:16;;;;;;;119.47;42.55;;;;;;;;;;4960139;28;20634;-44
2023/12/23 08:27:42;;;;;;;116.57;41.45;;;;;;;;;;4961539;28;20202;-44
2023/12/23 08:30:09;;;;;;;100.67;40.20;;;;;;;;;;4955692;28;20270;-43
2023/12/23 08:32:35;;;;;;;103.78;41.28;;;;;;;;;;4955482;28;20445;-43
2023/12/23 08:35:01;;;;;;;99.22;40.60;;;;;;;;;;4958289;28;20263;-43
2023/12/23 08:37:27;;;;;;;101.03;40.38;;;;;;;;;;4954588;28;20253;-43
2023/12/23 08:39:54;;;;;;;91.97;39.37;;;;;;;;;;4955633;28;20262;-43
2023/12/23 08:42:20;;;;;;;92.40;36.58;;;;;;;;;;4955151;28;20964;-43
2023/12/23 08:44:46;;;;;;;97.50;38.08;;;;;;;;;;4955293;28;20171;-43
2023/12/23 08:47:12;;;;;;;107.55;39.85;;;;;;;;;;4955266;28;20202;-44
2023/12/23 08:49:39;;;;;;;112.00;41.55;;;;;;;;;;4955398;28;20708;-43
2023/12/23 08:52:15;;;;;;;109.40;40.50;;;;;;;;;;4955695;28;20225;-43
2023/12/23 08:54:41;;;;;;;119.47;42.10;;;;;;;;;;4955282;28;20177;-44
2023/12/23 08:57:06;;;;;;;117.60;40.93;;;;;;;;;;4955124;28;20564;-44
2023/12/23 08:59:32;;;;;;;115.97;40.53;;;;;;;;;;4955451;28;20769;-44
2023/12/23 09:02:02;;;;;;;109.13;40.63;;;;;;;;;;4969152;28;20769;-44
2023/12/23 09:04:29;;;;;;;99.18;39.45;;;;;;;;;;4963189;28;20797;-44
2023/12/23 09:06:55;;;;;;;74.63;38.08;;;;;;;;;;4961921;28;20201;-44
2023/12/23 09:09:21;;;;;;;81.53;37.72;;;;;;;;;;4970974;28;20174;-44
2023/12/23 09:11:47;;;;;;;86.72;38.50;;;;;;;;;;4954648;28;20268;-44
2023/12/23 09:14:14;;;;;;;76.53;36.63;;;;;;;;;;4973520;28;20643;-44
2023/12/23 09:16:40;;;;;;;79.70;37.10;;;;;;;;;;4973255;28;20173;-43
2023/12/23 09:19:06;;;;;;;78.63;38.17;;;;;;;;;;4949978;28;20654;-44
2023/12/23 09:21:32;;;;;;;85.33;39.13;;;;;;;;;;4947730;28;20438;-43
2023/12/23 09:23:58;;;;;;;88.90;40.63;;;;;;;;;;4937976;28;20448;-43
2023/12/23 09:26:24;;;;;;;99.97;41.57;;;;;;;;;;4954481;28;20243;-44
2023/12/23 09:28:51;;;;;;;104.83;42.47;;;;;;;;;;4934624;28;20419;-43
2023/12/23 09:31:17;;;;;;;99.20;40.22;;;;;;;;;;4948772;28;20581;-44
2023/12/23 09:33:43;;;;;;;55.73;25.83;;;;;;;;;;4944125;28;20231;-44
2023/12/23 09:36:09;;;;;;;102.23;41.37;;;;;;;;;;4940497;29;20511;-44
2023/12/23 09:38:35;;;;;;;107.13;40.97;;;;;;;;;;4951616;28;20425;-44
2023/12/23 09:41:01;;;;;;;118.65;42.65;;;;;;;;;;4934786;29;20422;-44
2023/12/23 09:43:27;;;;;;;97.87;40.53;;;;;;;;;;4952703;29;20559;-44
2023/12/23 09:45:56;;;;;;;93.40;40.72;;;;;;;;;;4942893;28;20666;-44
2023/12/23 09:48:22;;;;;;;95.47;45.65;;;;;;;;;;4943993;28;20167;-44
2023/12/23 09:50:48;;;;;;;81.70;37.40;;;;;;;;;;4940857;28;20185;-45
2023/12/23 09:53:14;;;;;;;58.83;35.37;;;;;;;;;;4951755;28;20473;-45
2023/12/23 09:55:41;;;;;;;51.65;34.95;;;;;;;;;;4934969;29;20887;-44
2023/12/23 09:58:07;;;;;;;47.00;39.55;;;;;;;;;;4952428;29;20189;-45
2023/12/23 10:00:33;;;;;;;46.70;41.95;;;;;;;;;;4940197;28;20170;-44
2023/12/23 10:02:59;;;;;;;37.28;33.80;;;;;;;;;;4944417;29;20208;-44
2023/12/23 10:05:29;;;;;;;32.35;29.90;;;;;;;;;;4947888;28;20186;-44
2023/12/23 10:07:58;;;;;;;37.50;34.20;;;;;;;;;;4937015;29;20213;-45
2023/12/23 10:10:24;;;;;;;39.55;36.55;;;;;;;;;;4953802;28;20217;-44
2023/12/23 10:12:50;;;;;;;35.03;31.70;;;;;;;;;;4935537;28;20229;-45
2023/12/23 10:15:16;;;;;;;46.92;42.08;;;;;;;;;;4948742;29;20205;-45
2023/12/23 10:17:42;;;;;;;45.57;40.40;;;;;;;;;;4943540;28;20178;-44
2023/12/23 10:20:12;;;;;;;37.13;33.80;;;;;;;;;;4940566;29;20420;-44
2023/12/23 10:22:38;;;;;;;39.25;34.00;;;;;;;;;;4950615;28;20433;-44
2023/12/23 10:25:04;;;;;;;44.23;39.77;;;;;;;;;;4934794;29;20190;-45
2023/12/23 10:27:33;;;;;;;44.10;39.80;;;;;;;;;;4952417;29;20472;-45
2023/12/23 10:30:00;;;;;;;42.88;38.25;;;;;;;;;;4939070;28;20184;-44
2023/12/23 10:32:27;;;;;;;39.85;32.45;;;;;;;;;;4944704;29;20202;-44
2023/12/23 10:34:59;;;;;;;35.63;32.22;;;;;;;;;;4946585;28;20301;-44
2023/12/23 10:37:25;;;;;;;24.95;22.83;;;;;;;;;;4938193;29;20212;-44
2023/12/23 10:39:56;;;;;;;17.27;15.93;;;;;;;;;;4953418;28;20205;-43
2023/12/23 10:42:23;;;;;;;33.08;29.98;;;;;;;;;;4934183;29;20742;-44
2023/12/23 10:44:49;;;;;;;31.95;28.55;;;;;;;;;;4934941;29;20185;-44
2023/12/23 10:47:15;;;;;;;40.58;32.55;;;;;;;;;;4944754;29;20205;-45
2023/12/23 10:49:43;;;;;;;48.70;34.67;;;;;;;;;;4953051;28;20181;-44
2023/12/23 10:52:11;;;;;;;51.03;40.53;;;;;;;;;;4948781;28;20678;-45
2023/12/23 10:54:37;;;;;;;35.45;31.75;;;;;;;;;;4935232;29;20202;-45
2023/12/23 10:57:04;;;;;;;59.08;42.25;;;;;;;;;;4953369;28;20178;-44
2023/12/23 10:59:30;;;;;;;53.60;34.38;;;;;;;;;;4938594;28;20186;-44
2023/12/23 11:01:57;;;;;;;61.92;34.75;;;;;;;;;;4949543;28;20241;-45
2023/12/23 11:04:25;;;;;;;69.47;35.78;;;;;;;;;;4948851;28;20194;-44
2023/12/23 11:06:52;;;;;;;83.43;37.40;;;;;;;;;;4942217;29;20205;-44
2023/12/23 11:09:19;;;;;;;83.55;37.63;;;;;;;;;;4956350;28;20176;-44
2023/12/23 11:11:45;;;;;;;39.05;35.97;;;;;;;;;;4937684;29;20562;-44
2023/12/23 11:14:11;;;;;;;44.23;32.67;;;;;;;;;;4953259;29;20185;-44
2023/12/23 11:16:42;;;;;;;15.53;14.27;;;;;;;;;;4944536;28;20410;-44
2023/12/23 11:19:08;;;;;;;16.90;15.45;;;;;;;;;;4946459;29;20414;-44
2023/12/23 11:21:37;;;;;;;89.93;43.83;;;;;;;;;;4950407;28;20213;-44
2023/12/23 11:24:23;;;;;;;73.78;37.28;;;;;;;;;;4938357;29;20226;-44
2023/12/23 11:26:53;;;;;;;70.03;36.38;;;;;;;;;;4956395;28;20233;-44
2023/12/23 11:29:21;;;;;;;66.55;37.80;;;;;;;;;;4956523;28;20641;-45
2023/12/23 11:31:47;;;;;;;73.75;38.80;;;;;;;;;;4941969;28;20198;-45
2023/12/23 11:34:16;;;;;;;68.88;36.60;;;;;;;;;;4954853;28;20326;-44
2023/12/23 11:36:43;;;;;;;84.93;39.20;;;;;;;;;;4949151;29;20673;-44
2023/12/23 11:39:13;;;;;;;80.38;37.88;;;;;;;;;;4953597;28;20562;-44
2023/12/23 11:41:43;;;;;;;92.22;40.70;;;;;;;;;;4955305;28;20237;-45
2023/12/23 11:44:10;;;;;;;100.53;42.22;;;;;;;;;;4937366;29;20239;-44
2023/12/23 11:46:36;;;;;;;97.85;40.90;;;;;;;;;;4954307;29;20280;-45
2023/12/23 11:49:02;;;;;;;89.80;41.35;;;;;;;;;;4943438;28;20183;-45
2023/12/23 11:51:29;;;;;;;93.15;42.38;;;;;;;;;;4946345;28;20206;-44
2023/12/23 11:53:55;;;;;;;92.65;42.38;;;;;;;;;;4950675;28;20175;-44
2023/12/23 11:56:21;;;;;;;75.53;37.83;;;;;;;;;;4938491;29;20179;-45
2023/12/23 11:58:47;;;;;;;71.40;37.78;;;;;;;;;;4956039;28;20182;-45
2023/12/23 12:01:13;;;;;;;90.28;44.22;;;;;;;;;;4950812;28;20212;-45
2023/12/23 12:03:39;;;;;;;26.60;22.03;;;;;;;;;;4943112;28;20187;-45
2023/12/23 12:06:05;;;;;;;55.50;35.87;;;;;;;;;;4945649;29;20556;-44
2023/12/23 12:08:31;;;;;;;67.57;39.20;;;;;;;;;;4950788;28;20411;-44
2023/12/23 12:10:57;;;;;;;72.22;39.95;;;;;;;;;;4936315;29;20193;-45
2023/12/23 12:13:29;;;;;;;49.50;38.03;;;;;;;;;;4956012;28;20177;-44
2023/12/23 12:15:56;;;;;;;37.10;31.63;;;;;;;;;;4937179;28;20426;-44
2023/12/23 12:18:22;;;;;;;76.18;38.97;;;;;;;;;;4949763;28;20186;-44
2023/12/23 12:20:48;;;;;;;57.50;44.97;;;;;;;;;;4945687;28;20237;-44
2023/12/23 12:23:13;;;;;;;69.43;38.88;;;;;;;;;;4940225;29;20414;-45
2023/12/23 12:25:47;;;;;;;85.83;41.40;;;;;;;;;;4952799;28;20651;-45
2023/12/23 12:28:13;;;;;;;15.63;14.40;;;;;;;;;;4938168;29;20421;-45
2023/12/23 12:30:39;;;;;;;44.78;40.50;;;;;;;;;;4951471;29;20178;-45
2023/12/23 12:33:05;;;;;;;77.83;39.57;;;;;;;;;;4940536;28;20225;-45
2023/12/23 12:35:31;;;;;;;70.10;36.78;;;;;;;;;;4944445;28;20406;-44
2023/12/23 12:37:57;;;;;;;93.18;39.72;;;;;;;;;;4949531;28;20580;-45
2023/12/23 12:40:23;;;;;;;80.53;38.50;;;;;;;;;;4936326;29;20237;-44
2023/12/23 12:42:51;;;;;;;79.40;38.87;;;;;;;;;;4955460;28;20828;-45
2023/12/23 12:45:17;;;;;;;79.10;38.05;;;;;;;;;;4937885;28;20414;-44
2023/12/23 12:47:44;;;;;;;75.73;37.80;;;;;;;;;;4949488;29;20232;-45
2023/12/23 12:50:10;;;;;;;81.18;38.42;;;;;;;;;;4945534;28;20407;-45
2023/12/23 12:52:36;;;;;;;76.80;37.77;;;;;;;;;;4941374;29;20745;-45
2023/12/23 12:55:06;;;;;;;19.50;18.00;;;;;;;;;;4953382;28;20406;-45
2023/12/23 12:57:32;;;;;;;58.58;42.40;;;;;;;;;;4944823;29;20472;-45
2023/12/23 12:59:58;;;;;;;71.07;36.23;;;;;;;;;;4937783;28;20182;-44
2023/12/23 13:02:24;;;;;;;15.55;14.25;;;;;;;;;;4949081;28;20438;-45
2023/12/23 13:04:50;;;;;;;57.22;42.60;;;;;;;;;;4953235;28;20201;-45
2023/12/23 13:07:16;;;;;;;75.53;38.90;;;;;;;;;;4949081;28;20211;-45
2023/12/23 13:09:42;;;;;;;64.57;42.10;;;;;;;;;;4937343;29;20453;-45
2023/12/23 13:12:09;;;;;;;67.57;38.20;;;;;;;;;;4954576;28;20253;-45
2023/12/23 13:14:36;;;;;;;78.45;42.78;;;;;;;;;;4937572;28;20668;-44
2023/12/23 13:17:02;;;;;;;57.25;34.95;;;;;;;;;;4948579;29;20181;-44
2023/12/23 13:19:28;;;;;;;48.45;31.20;;;;;;;;;;4943999;28;20526;-45
2023/12/23 13:21:54;;;;;;;81.27;42.57;;;;;;;;;;4939210;28;20204;-45
2023/12/23 13:24:20;;;;;;;107.17;45.77;;;;;;;;;;4953235;28;20898;-44
2023/12/23 13:26:46;;;;;;;99.90;38.97;;;;;;;;;;4935484;29;20454;-45
2023/12/23 13:29:12;;;;;;;107.70;40.07;;;;;;;;;;4952272;29;20406;-44
2023/12/23 13:31:38;;;;;;;106.60;41.58;;;;;;;;;;4941519;28;20431;-44
2023/12/23 13:34:03;;;;;;;60.13;36.03;;;;;;;;;;4943832;29;20264;-44
2023/12/23 13:36:30;;;;;;;66.50;36.67;;;;;;;;;;4949551;28;20415;-44
2023/12/23 13:38:56;;;;;;;85.72;38.53;;;;;;;;;;4936083;29;20429;-44
2023/12/23 13:41:28;;;;;;;101.70;40.77;;;;;;;;;;4954260;28;20196;-44
2023/12/23 13:43:54;;;;;;;102.50;41.08;;;;;;;;;;4937281;28;20407;-44
2023/12/23 13:46:20;;;;;;;99.05;38.40;;;;;;;;;;4947928;29;20198;-45
2023/12/23 13:48:46;;;;;;;95.03;40.80;;;;;;;;;;4945092;28;20226;-44
2023/12/23 13:51:12;;;;;;;98.87;41.97;;;;;;;;;;4939975;28;20565;-45
2023/12/23 13:53:38;;;;;;;59.17;37.03;;;;;;;;;;4952903;28;20829;-49
2023/12/23 13:56:08;;;;;;;116.37;47.60;;;;;;;;;;4935044;29;20186;-45
2023/12/23 13:58:34;;;;;;;90.68;38.90;;;;;;;;;;4968957;28;20421;-44
2023/12/23 14:01:00;;;;;;;82.78;37.30;;;;;;;;;;4959043;28;20650;-44
2023/12/23 14:03:26;;;;;;;97.75;39.08;;;;;;;;;;4944812;28;20277;-44
2023/12/23 14:05:52;;;;;;;91.73;37.47;;;;;;;;;;4939778;29;20674;-44
2023/12/23 14:08:18;;;;;;;51.45;40.70;;;;;;;;;;4952737;28;20770;-44
2023/12/23 14:10:45;;;;;;;71.23;41.20;;;;;;;;;;4935015;29;20179;-44